Time;durP1;ratioP1;P1;durP2;ratioP2;P2;SDS_P1;SDS_P2;PMS_P1;PMS_P2;Temp;Humidity;BMP_temperature;BMP_pressure;BME280_temperature;BME280_humidity;BME280_pressure;Samples;Min_cycle;Max_cycle;Signal;HPM_P1;HPM_P2
2021/07/15 00:00:19;;;;;;;10.50;2.73;;;19.60;95.10;;;;;;5076570;28;20468;-77
2021/07/15 00:02:46;;;;;;;10.43;3.00;;;19.50;95.20;;;;;;5077236;28;20435;-77
2021/07/15 00:05:15;;;;;;;4.13;1.97;;;19.50;95.20;;;;;;5076654;28;20476;-77
2021/07/15 00:07:42;;;;;;;5.47;1.73;;;19.50;95.20;;;;;;5076553;28;20444;-77
2021/07/15 00:10:19;;;;;;;5.47;2.13;;;19.60;95.30;;;;;;5076252;28;20455;-77
2021/07/15 00:12:47;;;;;;;6.43;1.93;;;19.50;95.30;;;;;;5076546;28;20439;-77
2021/07/15 00:15:16;;;;;;;5.77;2.33;;;19.50;95.30;;;;;;5076495;28;20492;-77
2021/07/15 00:17:43;;;;;;;3.33;1.83;;;19.50;95.30;;;;;;5076815;28;20464;-77
2021/07/15 00:20:13;;;;;;;5.90;2.00;;;19.50;95.40;;;;;;5076313;28;20861;-78
2021/07/15 00:22:40;;;;;;;2.20;2.00;;;19.50;95.40;;;;;;5076980;28;20445;-77
2021/07/15 00:25:10;;;;;;;3.27;2.10;;;19.50;95.50;;;;;;5076831;28;20475;-78
2021/07/15 00:27:37;;;;;;;2.23;2.03;;;19.50;95.60;;;;;;5076677;28;20475;-77
2021/07/15 00:30:05;;;;;;;9.27;2.70;;;19.50;95.80;;;;;;5076439;28;20942;-77
2021/07/15 00:32:33;;;;;;;3.93;1.90;;;19.50;95.90;;;;;;5076563;28;20452;-77
2021/07/15 00:35:00;;;;;;;10.27;2.67;;;19.50;96.00;;;;;;5077305;28;20483;-77
2021/07/15 00:37:27;;;;;;;7.53;2.83;;;19.50;96.10;;;;;;5076571;28;20449;-77
2021/07/15 00:39:54;;;;;;;7.27;3.30;;;19.50;96.30;;;;;;5076719;28;20449;-78
2021/07/15 00:42:20;;;;;;;4.40;2.37;;;19.50;96.40;;;;;;5076155;28;20806;-77
2021/07/15 00:44:47;;;;;;;7.73;2.70;;;19.50;96.50;;;;;;5076512;28;20514;-77
2021/07/15 00:47:14;;;;;;;4.23;2.50;;;19.50;96.50;;;;;;5075799;28;20953;-78
2021/07/15 00:49:42;;;;;;;3.83;2.60;;;19.50;96.50;;;;;;5075731;28;20457;-77
2021/07/15 00:52:11;;;;;;;6.90;4.40;;;19.50;96.60;;;;;;5075304;28;20835;-77
2021/07/15 00:54:40;;;;;;;5.97;5.57;;;19.50;96.50;;;;;;5075388;28;20512;-77
2021/07/15 00:57:07;;;;;;;6.43;5.83;;;19.50;96.50;;;;;;5075842;28;20453;-77
2021/07/15 00:59:34;;;;;;;8.10;6.17;;;19.50;96.50;;;;;;5075616;28;20444;-77
2021/07/15 01:02:01;;;;;;;5.70;5.00;;;19.50;96.80;;;;;;5075427;28;20460;-77
2021/07/15 01:04:29;;;;;;;5.50;5.00;;;19.50;96.50;;;;;;5075583;28;20472;-77
2021/07/15 01:06:58;;;;;;;9.50;5.70;;;19.50;96.50;;;;;;5075184;28;20433;-77
2021/07/15 01:09:25;;;;;;;7.07;5.50;;;19.50;96.50;;;;;;5075512;28;20847;-77
2021/07/15 01:11:58;;;;;;;6.87;6.37;;;19.50;96.60;;;;;;5074771;28;20528;-77
2021/07/15 01:14:28;;;;;;;15.33;6.40;;;19.50;97.00;;;;;;5074275;28;21059;-77
2021/07/15 01:17:01;;;;;;;6.73;6.13;;;19.50;96.70;;;;;;5074522;28;20787;-77
2021/07/15 01:19:52;;;;;;;7.63;6.50;;;19.50;96.80;;;;;;5074456;28;20425;-77
2021/07/15 01:22:23;;;;;;;6.47;5.87;;;19.50;96.80;;;;;;5074285;28;20425;-76
2021/07/15 01:25:25;;;;;;;8.80;5.70;;;19.50;96.80;;;;;;5074689;28;20461;-76
2021/07/15 01:28:05;;;;;;;5.23;4.73;;;19.50;96.80;;;;;;5074334;28;20428;-77
2021/07/15 01:30:35;;;;;;;6.80;5.87;;;19.50;96.80;;;;;;5074278;28;20461;-77
2021/07/15 01:33:07;;;;;;;6.83;6.10;;;19.40;96.80;;;;;;5073566;28;20971;-77
2021/07/15 01:35:41;;;;;;;8.07;6.50;;;19.40;96.80;;;;;;5073741;28;20490;-76
2021/07/15 01:38:09;;;;;;;13.40;7.03;;;19.40;96.80;;;;;;5074052;28;20464;-76
2021/07/15 01:40:43;;;;;;;7.90;6.33;;;19.40;96.90;;;;;;5073860;28;20456;-77
2021/07/15 01:43:14;;;;;;;9.73;6.17;;;19.40;96.90;;;;;;5074130;28;20772;-77
2021/07/15 01:45:44;;;;;;;11.97;6.23;;;19.30;96.90;;;;;;5073904;28;20456;-77
2021/07/15 01:48:12;;;;;;;9.87;6.70;;;19.30;96.70;;;;;;5073963;28;20470;-77
2021/07/15 01:50:39;;;;;;;6.33;5.73;;;19.30;96.70;;;;;;5073567;28;20473;-77
2021/07/15 01:53:07;;;;;;;10.30;7.03;;;19.30;96.70;;;;;;5073830;28;20475;-77
2021/07/15 01:55:34;;;;;;;8.70;5.50;;;19.30;96.70;;;;;;5073740;28;20835;-77
2021/07/15 01:58:02;;;;;;;10.60;6.47;;;19.30;96.80;;;;;;5073838;28;20453;-77
2021/07/15 02:00:30;;;;;;;25.30;7.90;;;19.40;97.00;;;;;;5073740;28;20441;-77
2021/07/15 02:03:00;;;;;;;15.47;7.33;;;19.40;97.00;;;;;;5073911;28;20452;-77
2021/07/15 02:05:27;;;;;;;14.00;8.20;;;19.40;97.10;;;;;;5073827;28;20456;-77
2021/07/15 02:07:54;;;;;;;12.23;9.70;;;19.40;97.10;;;;;;5072779;28;20442;-77
2021/07/15 02:10:24;;;;;;;7.53;6.60;;;19.40;97.20;;;;;;5073594;28;20285;-77
2021/07/15 02:12:51;;;;;;;9.83;7.53;;;19.40;97.30;;;;;;5073537;28;20451;-77
2021/07/15 02:15:18;;;;;;;10.73;8.60;;;19.40;97.30;;;;;;5073403;28;20537;-77
2021/07/15 02:17:46;;;;;;;13.93;8.77;;;19.40;97.30;;;;;;5073603;28;20451;-77
2021/07/15 02:20:17;;;;;;;10.70;9.60;;;19.40;97.30;;;;;;5073836;28;20441;-77
2021/07/15 02:22:45;;;;;;;11.93;9.57;;;19.40;97.40;;;;;;5073612;28;20795;-77
2021/07/15 02:25:13;;;;;;;12.77;8.87;;;19.40;97.40;;;;;;5073157;28;20499;-77
2021/07/15 02:27:43;;;;;;;11.63;8.27;;;19.40;97.50;;;;;;5073519;28;20479;-77
2021/07/15 02:30:13;;;;;;;9.10;8.20;;;19.40;97.50;;;;;;5073536;28;20440;-77
2021/07/15 02:32:42;;;;;;;10.83;9.53;;;19.40;97.50;;;;;;5073575;28;20472;-77
2021/07/15 02:35:13;;;;;;;12.53;9.50;;;19.40;97.50;;;;;;5073246;28;20487;-77
2021/07/15 02:37:43;;;;;;;11.07;8.80;;;19.40;98.00;;;;;;5073533;28;20432;-77
2021/07/15 02:40:12;;;;;;;9.93;8.93;;;19.40;97.70;;;;;;5073311;28;20492;-77
2021/07/15 02:42:40;;;;;;;10.70;9.60;;;19.40;97.70;;;;;;5074074;28;20445;-77
2021/07/15 02:45:07;;;;;;;11.00;10.00;;;19.40;97.80;;;;;;5077518;28;20471;-77
2021/07/15 02:47:35;;;;;;;13.13;9.50;;;19.50;97.90;;;;;;5077242;28;20449;-77
2021/07/15 02:50:01;;;;;;;16.83;10.63;;;19.50;97.90;;;;;;5077279;28;20452;-77
2021/07/15 02:52:29;;;;;;;13.50;10.30;;;19.50;97.90;;;;;;5077454;28;20441;-77
2021/07/15 02:54:57;;;;;;;10.43;9.63;;;19.50;98.00;;;;;;5077331;28;20523;-77
2021/07/15 02:57:29;;;;;;;9.80;8.80;;;19.50;98.00;;;;;;5077082;28;20441;-76
2021/07/15 03:00:01;;;;;;;11.47;9.70;;;19.50;98.00;;;;;;5077101;28;20428;-77
2021/07/15 03:02:32;;;;;;;14.33;10.90;;;19.50;97.90;;;;;;5077126;28;20432;-77
2021/07/15 03:05:02;;;;;;;12.53;11.00;;;19.50;98.00;;;;;;5077315;28;20547;-77
2021/07/15 03:07:32;;;;;;;17.23;10.67;;;19.50;98.00;;;;;;5077079;28;20508;-76
2021/07/15 03:10:01;;;;;;;13.80;11.60;;;19.50;97.80;;;;;;5077309;28;20487;-77
2021/07/15 03:12:33;;;;;;;13.30;11.00;;;19.50;97.80;;;;;;5076631;28;20830;-77
2021/07/15 03:15:02;;;;;;;15.37;11.63;;;19.50;97.80;;;;;;5076760;28;20480;-76
2021/07/15 03:17:33;;;;;;;14.43;11.73;;;19.50;97.80;;;;;;5076783;28;20444;-76
2021/07/15 03:20:03;;;;;;;13.00;11.37;;;19.50;97.80;;;;;;5076453;28;20923;-77
2021/07/15 03:22:32;;;;;;;16.17;13.13;;;19.50;97.90;;;;;;5076589;28;20429;-76
2021/07/15 03:25:04;;;;;;;15.17;13.00;;;19.50;97.90;;;;;;5076609;28;20461;-76
2021/07/15 03:27:34;;;;;;;13.10;11.80;;;19.50;97.90;;;;;;5076756;28;20425;-77
2021/07/15 03:30:05;;;;;;;21.00;12.33;;;19.50;97.90;;;;;;5076704;28;20436;-77
2021/07/15 03:32:33;;;;;;;13.83;12.53;;;19.50;97.90;;;;;;5076734;28;20432;-77
2021/07/15 03:35:00;;;;;;;12.80;11.47;;;19.50;97.90;;;;;;5076368;28;20487;-76
2021/07/15 03:37:27;;;;;;;14.40;11.10;;;19.50;97.80;;;;;;5076403;28;20445;-77
2021/07/15 03:39:56;;;;;;;11.53;10.53;;;19.50;97.80;;;;;;5076456;28;20781;-76
2021/07/15 03:42:24;;;;;;;11.47;10.13;;;19.50;97.70;;;;;;5076092;28;20935;-77
2021/07/15 03:44:51;;;;;;;13.27;11.33;;;19.50;97.60;;;;;;5076185;28;20460;-76
2021/07/15 03:47:18;;;;;;;14.80;12.40;;;19.50;97.70;;;;;;5076284;28;20486;-76
2021/07/15 03:49:48;;;;;;;15.80;13.90;;;19.40;97.70;;;;;;5076081;28;20460;-77
2021/07/15 03:52:17;;;;;;;15.07;13.57;;;19.40;97.90;;;;;;5077082;28;20444;-77
2021/07/15 03:54:46;;;;;;;14.50;13.03;;;19.30;98.10;;;;;;5074940;28;20480;-78
2021/07/15 03:57:15;;;;;;;15.67;12.20;;;19.30;98.20;;;;;;5076326;28;20448;-77
2021/07/15 03:59:47;;;;;;;13.20;11.43;;;19.30;98.40;;;;;;5076102;28;20510;-77
2021/07/15 04:02:17;;;;;;;15.67;13.07;;;19.40;98.50;;;;;;5075769;28;20913;-77
2021/07/15 04:04:47;;;;;;;11.03;10.00;;;19.40;98.50;;;;;;5075949;28;20833;-77
2021/07/15 04:07:17;;;;;;;14.63;13.10;;;19.40;98.50;;;;;;5075730;28;20838;-76
2021/07/15 04:09:46;;;;;;;13.07;11.57;;;19.40;98.50;;;;;;5075987;28;20436;-76
2021/07/15 04:12:13;;;;;;;12.63;11.30;;;19.40;98.90;;;;;;5075416;28;20448;-77
2021/07/15 04:14:58;;;;;;;13.33;11.60;;;19.50;98.50;;;;;;5075377;28;20484;-76
2021/07/15 04:17:28;;;;;;;14.03;12.63;;;19.50;98.40;;;;;;5076024;28;20482;-76
2021/07/15 04:19:59;;;;;;;13.33;11.93;;;19.50;98.50;;;;;;5075663;28;20444;-76
2021/07/15 04:22:27;;;;;;;11.87;10.70;;;19.50;98.40;;;;;;5075407;28;20944;-77
2021/07/15 04:24:56;;;;;;;14.13;11.00;;;19.50;98.40;;;;;;5075602;28;20488;-76
2021/07/15 04:27:24;;;;;;;16.03;11.67;;;19.50;98.40;;;;;;5075610;28;20440;-76
2021/07/15 04:29:59;;;;;;;16.20;10.57;;;19.60;98.40;;;;;;5075797;28;20517;-77
2021/07/15 04:32:29;;;;;;;10.40;9.40;;;19.60;98.30;;;;;;5078160;28;20437;-76
2021/07/15 04:34:58;;;;;;;10.20;9.30;;;19.60;98.20;;;;;;5080750;28;20481;-76
2021/07/15 04:37:25;;;;;;;8.80;7.93;;;19.60;98.10;;;;;;5078091;28;20460;-76
2021/07/15 04:39:53;;;;;;;8.70;7.83;;;19.70;97.90;;;;;;5077265;28;20455;-76
2021/07/15 04:42:22;;;;;;;9.57;8.67;;;19.70;97.70;;;;;;5076774;28;20449;-76
2021/07/15 04:44:52;;;;;;;9.80;8.70;;;19.70;97.80;;;;;;5077082;28;20456;-76
2021/07/15 04:47:21;;;;;;;9.97;7.30;;;19.70;97.70;;;;;;5076892;28;20862;-76
2021/07/15 04:49:49;;;;;;;7.93;7.10;;;19.70;97.70;;;;;;5077891;28;20464;-76
2021/07/15 04:52:17;;;;;;;8.80;6.60;;;19.70;97.60;;;;;;5077297;28;20437;-76
2021/07/15 04:54:44;;;;;;;10.63;8.17;;;19.70;97.20;;;;;;5077746;28;20484;-76
2021/07/15 04:57:12;;;;;;;9.10;8.20;;;19.70;97.00;;;;;;5077469;28;20447;-76
2021/07/15 04:59:41;;;;;;;10.33;9.33;;;19.70;97.20;;;;;;5077148;28;20442;-76
2021/07/15 05:02:09;;;;;;;11.00;10.00;;;19.70;97.30;;;;;;5077067;28;20429;-76
2021/07/15 05:04:36;;;;;;;11.50;10.40;;;19.70;97.30;;;;;;5077493;28;20469;-77
2021/07/15 05:07:04;;;;;;;11.03;10.00;;;19.80;97.40;;;;;;5076657;28;20441;-77
2021/07/15 05:09:31;;;;;;;10.10;9.10;;;19.80;97.40;;;;;;5077280;28;20444;-77
2021/07/15 05:11:58;;;;;;;10.70;9.80;;;19.80;97.30;;;;;;5076177;28;20433;-77
2021/07/15 05:14:24;;;;;;;10.70;9.37;;;19.90;97.20;;;;;;5075890;28;20491;-76
2021/07/15 05:16:51;;;;;;;10.13;9.10;;;19.90;97.10;;;;;;5075221;28;20469;-76
2021/07/15 05:19:19;;;;;;;13.27;9.67;;;19.90;97.00;;;;;;5075705;28;20448;-77
2021/07/15 05:21:46;;;;;;;11.17;10.17;;;19.80;97.00;;;;;;5078018;28;20429;-76
2021/07/15 05:24:13;;;;;;;10.43;9.40;;;19.80;97.20;;;;;;5076542;28;20476;-77
2021/07/15 05:26:40;;;;;;;12.97;11.77;;;19.70;97.10;;;;;;5075677;28;20444;-76
2021/07/15 05:29:06;;;;;;;13.13;11.93;;;19.70;97.30;;;;;;5074489;28;20478;-76
2021/07/15 05:31:33;;;;;;;12.40;11.40;;;19.80;97.50;;;;;;5074090;28;20964;-76
2021/07/15 05:34:00;;;;;;;13.13;11.93;;;19.80;97.60;;;;;;5074080;28;20468;-76
2021/07/15 05:36:28;;;;;;;12.10;11.00;;;20.00;97.80;;;;;;5074158;28;20507;-76
2021/07/15 05:38:54;;;;;;;14.97;12.93;;;20.00;97.70;;;;;;5073854;28;20939;-76
2021/07/15 05:41:21;;;;;;;12.43;11.33;;;20.10;97.70;;;;;;5075511;28;20463;-76
2021/07/15 05:44:17;;;;;;;14.20;12.90;;;20.20;97.60;;;;;;5074028;28;20441;-76
2021/07/15 05:46:44;;;;;;;10.50;9.50;;;20.30;97.40;;;;;;5073317;28;20444;-76
2021/07/15 05:49:11;;;;;;;13.30;12.10;;;20.40;97.10;;;;;;5073753;28;20464;-76
2021/07/15 05:51:39;;;;;;;13.20;12.07;;;20.50;97.00;;;;;;5073863;28;20431;-76
2021/07/15 05:54:06;;;;;;;11.70;10.50;;;20.50;96.70;;;;;;5073659;28;20473;-76
2021/07/15 05:56:33;;;;;;;12.10;11.10;;;20.60;96.40;;;;;;5073310;28;20479;-76
2021/07/15 05:58:59;;;;;;;11.00;10.00;;;20.70;96.30;;;;;;5073700;28;20448;-76
2021/07/15 06:01:26;;;;;;;11.70;10.50;;;20.80;96.20;;;;;;5073653;28;20452;-76
2021/07/15 06:03:53;;;;;;;13.83;12.43;;;20.80;95.90;;;;;;5073973;28;20448;-76
2021/07/15 06:06:19;;;;;;;14.63;13.30;;;20.80;95.60;;;;;;5073637;28;20444;-76
2021/07/15 06:08:47;;;;;;;15.90;14.10;;;20.80;95.50;;;;;;5073614;28;20440;-76
2021/07/15 06:11:14;;;;;;;14.17;12.70;;;20.80;95.30;;;;;;5073537;28;20500;-76
2021/07/15 06:13:41;;;;;;;13.10;11.87;;;20.80;95.20;;;;;;5073027;28;20425;-76
2021/07/15 06:16:08;;;;;;;11.10;10.10;;;20.70;95.10;;;;;;5073389;28;20469;-76
2021/07/15 06:18:34;;;;;;;15.00;13.50;;;20.70;95.00;;;;;;5072652;28;20432;-76
2021/07/15 06:21:02;;;;;;;15.33;13.83;;;20.70;95.10;;;;;;5073635;28;20455;-76
2021/07/15 06:23:31;;;;;;;12.93;11.73;;;20.70;95.30;;;;;;5073340;28;20496;-77
2021/07/15 06:26:00;;;;;;;16.17;14.57;;;20.80;95.50;;;;;;5073224;28;20852;-76
2021/07/15 06:28:27;;;;;;;17.63;16.00;;;20.80;95.70;;;;;;5073305;28;20428;-76
2021/07/15 06:30:53;;;;;;;12.97;11.80;;;20.80;95.60;;;;;;5073809;28;20435;-76
2021/07/15 06:33:20;;;;;;;16.50;15.00;;;20.80;95.40;;;;;;5073378;28;20425;-76
2021/07/15 06:35:50;;;;;;;12.80;11.50;;;20.80;95.40;;;;;;5073209;28;20518;-76
2021/07/15 06:38:17;;;;;;;12.57;11.37;;;20.90;95.60;;;;;;5073335;28;20448;-76
2021/07/15 06:40:47;;;;;;;14.67;13.20;;;20.90;95.60;;;;;;5073324;28;20429;-76
2021/07/15 06:43:15;;;;;;;16.97;15.03;;;21.00;95.50;;;;;;5073402;28;20451;-76
2021/07/15 06:45:42;;;;;;;15.37;13.77;;;21.00;95.40;;;;;;5072894;28;20985;-77
2021/07/15 06:48:08;;;;;;;13.03;11.93;;;21.00;95.40;;;;;;5073222;28;20429;-77
2021/07/15 06:50:35;;;;;;;15.43;13.87;;;21.00;95.20;;;;;;5072983;28;20460;-77
2021/07/15 06:53:02;;;;;;;15.20;13.80;;;21.00;95.10;;;;;;5073124;28;20448;-76
2021/07/15 06:55:29;;;;;;;14.13;12.87;;;21.00;95.20;;;;;;5072668;28;20480;-76
2021/07/15 06:57:56;;;;;;;14.60;13.03;;;21.00;95.20;;;;;;5072679;28;20930;-76
2021/07/15 07:00:24;;;;;;;15.40;14.03;;;21.00;95.10;;;;;;5072992;28;20432;-76
2021/07/15 07:02:51;;;;;;;15.87;14.40;;;21.00;95.10;;;;;;5073194;28;20440;-76
2021/07/15 07:05:17;;;;;;;15.63;14.23;;;20.90;95.00;;;;;;5073009;28;20464;-76
2021/07/15 07:07:45;;;;;;;18.13;16.37;;;20.90;94.90;;;;;;5072884;28;20441;-76
2021/07/15 07:10:13;;;;;;;19.40;17.43;;;21.00;95.10;;;;;;5073222;28;20414;-76
2021/07/15 07:12:40;;;;;;;18.53;16.77;;;21.00;95.30;;;;;;5072925;28;20441;-76
2021/07/15 07:15:09;;;;;;;21.97;19.77;;;21.00;95.50;;;;;;5072437;28;20460;-76
2021/07/15 07:17:37;;;;;;;20.13;18.30;;;21.00;95.50;;;;;;5072883;28;20426;-76
2021/07/15 07:20:04;;;;;;;20.53;18.53;;;21.10;95.60;;;;;;5072950;28;20445;-76
2021/07/15 07:22:31;;;;;;;19.87;17.63;;;21.10;95.60;;;;;;5072856;28;20436;-76
2021/07/15 07:24:58;;;;;;;18.97;17.17;;;21.10;95.50;;;;;;5073001;28;20465;-76
2021/07/15 07:27:25;;;;;;;16.47;14.97;;;21.20;95.40;;;;;;5072696;28;20433;-76
2021/07/15 07:29:51;;;;;;;18.07;16.30;;;21.20;95.30;;;;;;5073596;28;20444;-76
2021/07/15 07:32:18;;;;;;;16.63;15.07;;;21.20;95.20;;;;;;5076025;28;20817;-76
2021/07/15 07:34:46;;;;;;;20.17;18.30;;;21.20;95.00;;;;;;5076264;28;20476;-76
2021/07/15 07:37:13;;;;;;;21.70;19.50;;;21.20;95.00;;;;;;5075910;28;20840;-78
2021/07/15 07:39:40;;;;;;;22.77;20.30;;;21.20;95.20;;;;;;5076277;28;20440;-76
2021/07/15 07:42:07;;;;;;;21.73;19.67;;;21.30;95.30;;;;;;5075927;28;20822;-76
2021/07/15 07:44:34;;;;;;;20.47;18.47;;;21.40;95.20;;;;;;5076095;28;20815;-75
2021/07/15 07:47:01;;;;;;;17.57;15.80;;;21.50;94.90;;;;;;5075945;28;20922;-75
2021/07/15 07:49:28;;;;;;;20.23;18.30;;;21.60;94.60;;;;;;5075889;28;20483;-75
2021/07/15 07:51:56;;;;;;;20.20;18.20;;;21.70;94.40;;;;;;5076035;28;20795;-75
2021/07/15 07:54:23;;;;;;;18.97;17.07;;;21.80;94.30;;;;;;5075616;28;20465;-75
2021/07/15 07:56:49;;;;;;;17.13;15.53;;;22.00;94.30;;;;;;5075490;28;20966;-75
2021/07/15 07:59:16;;;;;;;15.40;13.80;;;22.00;94.00;;;;;;5076570;28;20432;-75
2021/07/15 08:01:43;;;;;;;14.17;12.87;;;22.00;92.80;;;;;;5075894;28;20432;-75
2021/07/15 08:04:10;;;;;;;12.60;11.50;;;22.10;92.90;;;;;;5075736;28;20850;-75
2021/07/15 08:06:37;;;;;;;16.23;14.67;;;22.30;93.40;;;;;;5075702;28;20421;-76
2021/07/15 08:09:08;;;;;;;11.63;10.63;;;22.40;92.80;;;;;;5075759;28;20528;-75
2021/07/15 08:11:36;;;;;;;14.47;13.07;;;22.60;92.50;;;;;;5076764;28;20810;-76
2021/07/15 08:14:03;;;;;;;11.20;10.17;;;22.90;92.10;;;;;;5076377;28;20512;-76
2021/07/15 08:16:30;;;;;;;10.80;9.80;;;23.00;91.90;;;;;;5075669;28;20472;-77
2021/07/15 08:18:57;;;;;;;12.40;11.30;;;23.10;91.50;;;;;;5075430;28;20935;-77
2021/07/15 08:21:25;;;;;;;11.27;10.07;;;23.30;91.30;;;;;;5075741;28;20445;-77
2021/07/15 08:23:52;;;;;;;10.03;9.00;;;23.50;91.20;;;;;;5075558;28;20429;-77
2021/07/15 08:26:20;;;;;;;8.90;7.53;;;23.70;90.50;;;;;;5075707;28;20429;-77
2021/07/15 08:28:47;;;;;;;10.93;9.90;;;24.00;90.10;;;;;;5076144;28;20425;-78
2021/07/15 08:31:14;;;;;;;9.67;8.73;;;24.30;88.10;;;;;;5076341;28;20520;-77
2021/07/15 08:33:41;;;;;;;9.40;8.43;;;24.50;86.40;;;;;;5075898;28;20856;-78
2021/07/15 08:36:08;;;;;;;9.37;8.47;;;24.80;85.90;;;;;;5076030;28;20904;-78
2021/07/15 08:38:35;;;;;;;7.63;6.83;;;24.90;83.40;;;;;;5075942;28;20938;-78
2021/07/15 08:41:01;;;;;;;6.60;5.07;;;25.00;81.20;;;;;;5076761;28;20425;-77
2021/07/15 08:43:30;;;;;;;6.17;5.67;;;25.10;82.90;;;;;;5076136;28;20433;-78
2021/07/15 08:45:59;;;;;;;4.47;4.07;;;25.40;81.20;;;;;;5075953;28;20985;-78
2021/07/15 08:48:28;;;;;;;2.80;2.60;;;25.60;79.80;;;;;;5076923;28;20452;-78
2021/07/15 08:50:55;;;;;;;5.30;4.80;;;25.90;78.90;;;;;;5076217;28;20483;-78
2021/07/15 08:53:26;;;;;;;5.20;4.70;;;26.30;79.10;;;;;;5076554;28;20436;-78
2021/07/15 08:58:38;;;;;;;4.40;4.07;;;26.80;73.10;;;;;;5075820;28;20401;-78
2021/07/15 09:01:05;;;;;;;6.47;5.50;;;27.00;69.40;;;;;;5075963;28;20425;-78
2021/07/15 09:03:34;;;;;;;5.17;4.70;;;27.10;70.20;;;;;;5076000;28;20467;-78
2021/07/15 09:06:01;;;;;;;7.03;6.30;;;27.20;70.30;;;;;;5075744;28;20803;-78
2021/07/15 09:08:30;;;;;;;6.33;5.67;;;27.30;70.60;;;;;;5075987;28;20433;-78
2021/07/15 09:10:57;;;;;;;4.37;4.07;;;27.40;70.50;;;;;;5076306;28;20429;-78
2021/07/15 09:13:24;;;;;;;7.50;6.67;;;27.50;70.60;;;;;;5075637;28;20962;-78
2021/07/15 09:15:52;;;;;;;5.83;5.10;;;27.50;70.20;;;;;;5076549;28;20469;-78
2021/07/15 09:18:19;;;;;;;6.43;5.83;;;27.60;70.50;;;;;;5076012;28;20440;-78
2021/07/15 09:20:46;;;;;;;5.60;3.80;;;27.60;68.60;;;;;;5076162;28;20843;-78
2021/07/15 09:23:15;;;;;;;5.70;3.60;;;27.50;68.00;;;;;;5075540;28;20432;-78
2021/07/15 09:25:56;;;;;;;3.60;3.30;;;27.40;68.20;;;;;;5075569;28;20467;-78
2021/07/15 09:28:28;;;;;;;5.87;4.33;;;27.40;68.30;;;;;;5075468;28;20933;-78
2021/07/15 09:30:56;;;;;;;4.00;3.70;;;27.30;69.20;;;;;;5074809;28;20425;-77
2021/07/15 09:33:26;;;;;;;4.93;4.10;;;27.30;68.70;;;;;;5074326;28;20935;-77
2021/07/15 09:35:53;;;;;;;4.93;3.77;;;27.20;68.60;;;;;;5074041;28;20472;-77
2021/07/15 09:38:22;;;;;;;3.57;3.23;;;27.20;69.90;;;;;;5074116;28;20927;-77
2021/07/15 09:40:50;;;;;;;3.80;3.27;;;27.20;71.10;;;;;;5074538;28;20428;-77
2021/07/15 09:43:19;;;;;;;3.93;3.03;;;27.20;71.20;;;;;;5074183;28;20799;-77
2021/07/15 09:45:47;;;;;;;3.17;2.97;;;27.30;71.40;;;;;;5073726;28;20998;-77
2021/07/15 09:48:17;;;;;;;5.80;3.87;;;27.40;69.80;;;;;;5073952;28;20899;-77
2021/07/15 09:50:44;;;;;;;7.07;4.87;;;27.50;68.90;;;;;;5073586;28;20456;-77
2021/07/15 09:53:16;;;;;;;7.03;4.40;;;27.50;67.70;;;;;;5073010;28;20447;-77
2021/07/15 09:55:45;;;;;;;4.83;3.70;;;27.60;68.30;;;;;;5073962;28;20570;-77
2021/07/15 09:58:13;;;;;;;5.77;3.77;;;27.80;68.30;;;;;;5074497;28;20464;-77
2021/07/15 10:00:42;;;;;;;7.17;5.20;;;28.00;67.70;;;;;;5073791;28;20452;-77
2021/07/15 10:03:11;;;;;;;5.53;3.87;;;28.20;67.60;;;;;;5073986;28;20445;-77
2021/07/15 10:05:49;;;;;;;5.27;4.80;;;28.30;67.50;;;;;;5073935;28;20518;-78
2021/07/15 10:08:23;;;;;;;6.40;5.60;;;28.50;66.20;;;;;;5074325;28;20421;-78
2021/07/15 10:10:50;;;;;;;5.77;4.07;;;28.70;63.80;;;;;;5074457;28;20424;-78
2021/07/15 10:13:19;;;;;;;5.00;4.17;;;29.10;63.50;;;;;;5074434;28;20444;-77
2021/07/15 10:15:47;;;;;;;5.00;4.53;;;29.40;62.70;;;;;;5075134;28;20461;-79
2021/07/15 10:18:14;;;;;;;2.60;2.40;;;29.80;61.60;;;;;;5075438;28;20476;-79
2021/07/15 10:20:55;;;;;;;5.97;4.20;;;30.20;59.30;;;;;;5076283;28;20456;-79
2021/07/15 10:23:32;;;;;;;3.90;3.10;;;30.60;58.40;;;;;;5076044;28;20440;-79
2021/07/15 10:26:00;;;;;;;5.23;4.40;;;30.70;57.30;;;;;;5076069;28;20499;-79
2021/07/15 10:28:27;;;;;;;5.70;4.83;;;30.80;57.10;;;;;;5075964;28;20455;-79
2021/07/15 10:30:55;;;;;;;6.03;5.50;;;30.50;56.60;;;;;;5075164;28;20934;-79
2021/07/15 10:33:22;;;;;;;6.03;5.53;;;30.20;57.50;;;;;;5077537;28;20459;-79
2021/07/15 10:35:49;;;;;;;6.70;6.07;;;29.80;58.30;;;;;;5075751;28;20464;-79
2021/07/15 10:38:17;;;;;;;5.90;5.27;;;29.40;58.10;;;;;;5076180;28;20473;-79
2021/07/15 10:40:45;;;;;;;8.00;6.17;;;29.00;59.50;;;;;;5076184;28;20429;-80
2021/07/15 10:43:12;;;;;;;6.97;6.27;;;28.60;61.50;;;;;;5075733;28;20433;-79
2021/07/15 10:45:40;;;;;;;7.87;7.07;;;28.40;62.60;;;;;;5075583;28;20476;-80
2021/07/15 10:48:07;;;;;;;7.53;6.47;;;28.10;64.80;;;;;;5075659;28;20449;-79
2021/07/15 10:50:34;;;;;;;10.07;7.97;;;27.80;65.70;;;;;;5075544;28;20498;-79
2021/07/15 10:53:01;;;;;;;8.50;7.60;;;27.40;67.00;;;;;;5076654;28;20445;-79
2021/07/15 10:55:29;;;;;;;7.80;7.00;;;27.10;68.50;;;;;;5076065;28;20869;-78
2021/07/15 10:57:56;;;;;;;8.10;7.30;;;26.70;69.80;;;;;;5075299;28;20938;-79
2021/07/15 11:00:25;;;;;;;8.93;8.00;;;26.50;71.20;;;;;;5075738;28;20439;-79
2021/07/15 11:03:17;;;;;;;9.23;8.33;;;26.30;72.50;;;;;;5076275;28;20448;-79
2021/07/15 11:05:49;;;;;;;12.50;9.53;;;26.10;74.30;;;;;;5079616;28;20468;-79
2021/07/15 11:08:16;;;;;;;11.83;10.13;;;26.00;75.00;;;;;;5079637;28;20436;-79
2021/07/15 11:10:45;;;;;;;12.07;10.80;;;25.90;75.40;;;;;;5079452;28;20459;-79
2021/07/15 11:13:12;;;;;;;12.53;11.23;;;25.70;76.40;;;;;;5079694;28;20429;-79
2021/07/15 11:15:48;;;;;;;13.60;12.17;;;25.60;78.30;;;;;;5078869;28;20465;-78
2021/07/15 11:18:57;;;;;;;15.20;11.80;;;25.50;78.50;;;;;;5078416;28;20456;-78
2021/07/15 11:21:32;;;;;;;12.97;11.60;;;25.40;79.40;;;;;;5078740;28;20497;-78
2021/07/15 11:24:32;;;;;;;12.37;11.17;;;25.40;80.80;;;;;;5078422;28;20472;-78
2021/07/15 11:27:37;;;;;;;12.50;11.20;;;25.50;81.30;;;;;;5077937;28;21008;-78
2021/07/15 11:30:07;;;;;;;11.27;9.80;;;25.90;81.70;;;;;;5077621;28;20447;-78
2021/07/15 11:32:34;;;;;;;15.30;11.97;;;26.20;79.50;;;;;;5077422;28;20903;-78
2021/07/15 11:35:01;;;;;;;14.90;13.20;;;26.50;77.90;;;;;;5077250;28;20460;-78
2021/07/15 11:37:46;;;;;;;11.20;10.10;;;26.70;77.00;;;;;;5077452;28;20472;-78
2021/07/15 11:40:45;;;;;;;10.87;9.77;;;26.70;76.00;;;;;;5077326;28;20448;-78
2021/07/15 11:43:30;;;;;;;9.90;8.47;;;26.90;76.30;;;;;;5077558;28;20455;-79
2021/07/15 11:46:08;;;;;;;11.53;10.33;;;27.10;75.80;;;;;;5078448;28;20507;-79
2021/07/15 11:48:43;;;;;;;12.90;11.47;;;27.20;74.00;;;;;;5078547;28;20436;-79
2021/07/15 11:51:32;;;;;;;11.80;10.60;;;27.30;73.70;;;;;;5079109;28;20501;-79
2021/07/15 11:54:25;;;;;;;8.43;7.57;;;27.30;73.60;;;;;;5079023;28;20463;-79
2021/07/15 11:56:58;;;;;;;6.03;5.53;;;27.30;73.50;;;;;;5078907;28;20429;-78
2021/07/15 11:59:42;;;;;;;7.33;6.63;;;27.30;74.50;;;;;;5078754;28;20433;-79
2021/07/15 12:02:11;;;;;;;9.40;8.40;;;27.20;74.10;;;;;;5078170;28;20425;-78
2021/07/15 12:05:19;;;;;;;9.57;7.20;;;27.20;73.70;;;;;;5077379;28;20475;-79
2021/07/15 12:07:48;;;;;;;8.43;7.27;;;27.20;74.10;;;;;;5014559;28;20474;-78
2021/07/15 12:10:24;;;;;;;7.87;6.80;;;27.20;74.10;;;;;;5068318;28;20452;-77
2021/07/15 12:12:52;;;;;;;6.83;6.13;;;27.40;74.60;;;;;;5076858;28;20823;-78
2021/07/15 12:15:25;;;;;;;8.70;7.20;;;27.50;73.60;;;;;;5075561;28;20470;-78
2021/07/15 12:17:53;;;;;;;6.17;5.37;;;27.70;73.00;;;;;;5076799;28;20507;-78
2021/07/15 12:20:21;;;;;;;6.87;4.97;;;27.70;72.30;;;;;;5088385;28;20453;-75
2021/07/15 12:22:52;;;;;;;3.70;3.40;;;27.60;72.20;;;;;;5076210;28;20436;-75
2021/07/15 12:25:22;;;;;;;5.50;3.80;;;27.40;72.50;;;;;;5075505;28;20487;-75
2021/07/15 12:27:52;;;;;;;6.90;3.83;;;27.30;73.40;;;;;;5075483;28;20426;-75
2021/07/15 12:30:21;;;;;;;4.20;3.80;;;27.30;73.70;;;;;;5076267;28;20452;-75
2021/07/15 12:33:05;;;;;;;5.60;3.03;;;27.30;74.10;;;;;;5074972;28;20452;-75
2021/07/15 12:35:35;;;;;;;6.87;4.40;;;27.50;74.20;;;;;;5076126;28;20465;-75
2021/07/15 12:38:21;;;;;;;6.23;4.60;;;28.00;73.20;;;;;;5075317;28;20468;-75
2021/07/15 12:40:48;;;;;;;6.70;4.63;;;28.60;71.00;;;;;;5075526;28;20429;-75
2021/07/15 12:43:17;;;;;;;6.20;4.70;;;29.20;67.60;;;;;;5075353;28;20445;-75
2021/07/15 12:45:48;;;;;;;5.57;4.80;;;29.50;66.60;;;;;;5075148;28;20472;-75
2021/07/15 12:48:16;;;;;;;5.03;4.57;;;29.50;65.70;;;;;;5075210;28;20425;-75
2021/07/15 12:50:44;;;;;;;4.90;4.40;;;29.50;65.10;;;;;;5074742;28;20962;-75
2021/07/15 12:53:18;;;;;;;5.80;5.20;;;29.60;65.30;;;;;;5075371;28;20445;-75